Time;durP1;ratioP1;P1;durP2;ratioP2;P2;SDS_P1;SDS_P2;PMS_P1;PMS_P2;Temp;Humidity;BMP_temperature;BMP_pressure;BME280_temperature;BME280_humidity;BME280_pressure;Samples;Min_cycle;Max_cycle;Signal;HPM_P1;HPM_P2
2023/03/24 00:02:08;;;;;;;4.53;2.80;;;11.80;99.90;;;;;;5042230;28;20035;-88
2023/03/24 00:04:34;;;;;;;7.03;3.13;;;11.80;99.90;;;;;;5042386;28;20594;-88
2023/03/24 00:07:02;;;;;;;5.38;3.10;;;11.80;99.90;;;;;;5042864;28;20087;-88
2023/03/24 00:09:31;;;;;;;3.90;2.80;;;11.80;99.90;;;;;;5042459;28;20017;-88
2023/03/24 00:11:59;;;;;;;4.53;2.90;;;11.80;99.90;;;;;;5042693;28;20025;-88
2023/03/24 00:14:24;;;;;;;4.82;3.45;;;11.80;99.90;;;;;;5041818;28;20491;-88
2023/03/24 00:16:51;;;;;;;9.07;4.00;;;11.80;99.90;;;;;;5042408;28;20108;-91
2023/03/24 00:19:20;;;;;;;4.28;2.90;;;11.80;99.90;;;;;;5041669;28;20028;-88
2023/03/24 00:21:45;;;;;;;6.00;3.03;;;11.80;99.90;;;;;;5042648;28;20533;-88
2023/03/24 00:24:11;;;;;;;5.90;3.40;;;11.80;99.90;;;;;;5040930;28;20059;-88
2023/03/24 00:26:39;;;;;;;5.07;2.70;;;11.80;99.90;;;;;;5040359;28;20134;-88
2023/03/24 00:29:08;;;;;;;4.15;2.75;;;11.80;99.90;;;;;;5042114;28;20017;-89
2023/03/24 00:31:38;;;;;;;6.00;3.22;;;11.80;99.90;;;;;;5042330;28;20033;-87
2023/03/24 00:34:07;;;;;;;4.50;3.00;;;11.80;99.90;;;;;;5034512;28;20033;-87
2023/03/24 00:36:34;;;;;;;5.95;2.53;;;11.80;99.90;;;;;;5041600;28;20082;-88
2023/03/24 00:39:00;;;;;;;6.32;3.10;;;11.80;99.90;;;;;;5042055;28;20108;-88
2023/03/24 00:41:27;;;;;;;5.50;3.10;;;11.80;99.90;;;;;;5041805;28;20021;-88
2023/03/24 00:43:57;;;;;;;4.13;2.70;;;11.80;99.90;;;;;;5042120;28;20029;-87
2023/03/24 00:46:27;;;;;;;4.50;2.97;;;11.80;99.90;;;;;;5041544;28;20112;-88
2023/03/24 00:49:02;;;;;;;4.90;3.08;;;11.70;99.90;;;;;;5040953;28;20052;-88
2023/03/24 00:51:30;;;;;;;5.75;3.05;;;11.70;99.90;;;;;;5042099;28;20113;-87
2023/03/24 00:53:56;;;;;;;5.85;2.92;;;11.70;99.90;;;;;;5041403;28;20035;-87
2023/03/24 00:56:25;;;;;;;4.82;2.83;;;11.70;99.90;;;;;;5041848;28;20144;-87
2023/03/24 00:58:53;;;;;;;5.97;2.63;;;11.70;99.90;;;;;;5041383;28;20024;-88
2023/03/24 01:01:20;;;;;;;4.88;2.92;;;11.60;99.90;;;;;;5041499;28;20472;-87
2023/03/24 01:03:49;;;;;;;5.40;2.75;;;11.60;99.90;;;;;;5041458;28;20025;-88
2023/03/24 01:06:17;;;;;;;5.38;2.75;;;11.60;99.90;;;;;;5041183;28;20079;-87
2023/03/24 01:08:43;;;;;;;6.65;2.78;;;11.50;99.90;;;;;;5041373;28;20029;-88
2023/03/24 01:11:11;;;;;;;6.05;2.90;;;11.40;99.90;;;;;;5041866;28;20746;-88
2023/03/24 01:13:38;;;;;;;6.70;3.00;;;11.40;99.90;;;;;;5040824;28;20025;-87
2023/03/24 01:16:05;;;;;;;5.70;2.92;;;11.40;99.90;;;;;;5042153;28;20044;-87
2023/03/24 01:18:31;;;;;;;4.63;2.90;;;11.30;99.90;;;;;;5040890;28;20025;-88
2023/03/24 01:20:57;;;;;;;5.18;3.00;;;11.20;99.90;;;;;;5041552;28;20345;-87
2023/03/24 01:23:24;;;;;;;4.13;2.63;;;11.20;99.90;;;;;;5041383;28;20056;-88
2023/03/24 01:25:51;;;;;;;5.78;2.72;;;11.20;99.90;;;;;;5040735;28;20103;-88
2023/03/24 01:28:23;;;;;;;4.30;2.28;;;11.10;99.90;;;;;;5040444;28;20035;-88
2023/03/24 01:30:50;;;;;;;3.92;2.53;;;11.10;99.90;;;;;;5023188;28;20060;-88
2023/03/24 01:33:16;;;;;;;4.53;3.03;;;11.10;99.90;;;;;;5040702;28;20032;-88
2023/03/24 01:35:41;;;;;;;5.63;2.88;;;11.10;99.90;;;;;;5041683;28;20032;-89
2023/03/24 01:38:09;;;;;;;4.70;3.30;;;11.10;99.90;;;;;;5040661;28;21277;-88
2023/03/24 01:40:38;;;;;;;4.72;2.80;;;11.10;99.90;;;;;;5041832;28;20472;-88
2023/03/24 01:43:05;;;;;;;3.92;2.60;;;11.10;99.90;;;;;;5040724;28;20021;-88
2023/03/24 01:45:53;;;;;;;4.70;3.25;;;11.10;99.90;;;;;;5041249;28;20660;-88
2023/03/24 01:48:30;;;;;;;8.23;2.63;;;11.20;99.90;;;;;;5040539;28;20017;-88
2023/03/24 01:51:04;;;;;;;6.55;3.15;;;11.20;99.90;;;;;;5041472;28;20115;-88
2023/03/24 01:53:32;;;;;;;4.75;2.85;;;11.20;99.90;;;;;;5040819;28;20052;-88
2023/03/24 01:56:00;;;;;;;3.60;2.60;;;11.30;99.90;;;;;;5040797;28;20025;-88
2023/03/24 01:58:29;;;;;;;7.10;3.15;;;11.30;99.90;;;;;;5039590;28;20032;-88
2023/03/24 02:00:56;;;;;;;7.57;3.17;;;11.30;99.90;;;;;;5041606;28;20056;-88
2023/03/24 02:03:24;;;;;;;6.55;3.00;;;11.30;99.90;;;;;;5040292;28;20029;-88
2023/03/24 02:05:52;;;;;;;5.05;2.78;;;11.30;99.90;;;;;;5041225;28;20500;-88
2023/03/24 02:08:33;;;;;;;4.55;3.03;;;11.30;99.90;;;;;;5040241;28;20076;-89
2023/03/24 02:11:00;;;;;;;5.93;3.10;;;11.20;99.90;;;;;;5044669;28;20514;-88
2023/03/24 02:13:26;;;;;;;6.40;2.88;;;11.20;99.90;;;;;;5043437;28;20135;-88
2023/03/24 02:16:19;;;;;;;7.68;3.20;;;11.10;99.90;;;;;;5044642;28;20025;-89
2023/03/24 02:19:11;;;;;;;6.13;3.05;;;11.10;99.90;;;;;;5042682;28;21084;-89
2023/03/24 02:22:02;;;;;;;5.60;3.00;;;11.10;99.90;;;;;;5044208;28;20017;-89
2023/03/24 02:24:46;;;;;;;5.50;3.17;;;11.10;99.90;;;;;;5043444;28;20028;-89
2023/03/24 02:27:47;;;;;;;10.18;3.60;;;11.00;99.90;;;;;;5044084;28;20024;-89
2023/03/24 02:30:31;;;;;;;4.63;2.90;;;11.00;99.90;;;;;;5043195;28;20025;-89
2023/03/24 02:33:44;;;;;;;4.25;3.08;;;11.00;99.90;;;;;;5042930;28;20041;-89
2023/03/24 02:36:25;;;;;;;6.45;3.22;;;11.00;99.90;;;;;;4994134;28;20032;-88
2023/03/24 02:39:30;;;;;;;6.47;3.38;;;10.90;99.90;;;;;;5043471;28;20051;-88
2023/03/24 02:42:10;;;;;;;6.05;3.17;;;10.90;99.90;;;;;;5043508;28;20073;-88
2023/03/24 02:44:56;;;;;;;3.38;2.60;;;10.80;99.90;;;;;;5043287;28;20037;-88
2023/03/24 02:47:55;;;;;;;6.45;2.70;;;10.80;99.90;;;;;;5043252;28;20056;-88
2023/03/24 02:50:45;;;;;;;5.53;2.72;;;10.80;99.90;;;;;;5031843;28;20028;-88
2023/03/24 02:53:39;;;;;;;5.65;3.10;;;10.80;99.90;;;;;;5010990;28;20173;-88
2023/03/24 02:56:39;;;;;;;6.22;3.22;;;10.70;99.90;;;;;;5031130;28;20033;-88
2023/03/24 02:59:09;;;;;;;4.30;3.05;;;10.70;99.90;;;;;;5043476;28;20021;-88
2023/03/24 03:01:40;;;;;;;4.13;3.25;;;10.70;99.90;;;;;;5043328;28;20079;-88
2023/03/24 03:04:17;;;;;;;6.50;2.92;;;10.70;99.90;;;;;;5043069;28;20040;-87
2023/03/24 03:06:48;;;;;;;5.50;2.85;;;10.70;99.90;;;;;;5042937;28;20155;-87
2023/03/24 03:09:16;;;;;;;6.75;2.72;;;10.70;99.90;;;;;;5042872;28;20087;-88
2023/03/24 03:11:48;;;;;;;5.00;3.03;;;10.60;99.90;;;;;;5042967;28;20706;-88
2023/03/24 03:14:40;;;;;;;4.85;2.58;;;10.60;99.90;;;;;;5043468;28;20033;-88
2023/03/24 03:17:14;;;;;;;6.93;3.65;;;10.70;99.90;;;;;;5042684;28;20063;-88
2023/03/24 03:19:56;;;;;;;3.50;2.63;;;10.60;99.90;;;;;;5042269;28;20025;-88
2023/03/24 03:22:27;;;;;;;3.72;2.72;;;10.60;99.90;;;;;;5032921;28;20022;-88
2023/03/24 03:24:56;;;;;;;4.78;3.00;;;10.60;99.90;;;;;;5042309;28;20672;-88
2023/03/24 03:27:26;;;;;;;4.50;3.25;;;10.60;99.90;;;;;;5042416;28;20028;-88
2023/03/24 03:29:57;;;;;;;4.43;3.03;;;10.60;99.90;;;;;;5043310;28;20033;-88
2023/03/24 03:32:28;;;;;;;4.40;2.85;;;10.60;99.90;;;;;;5042765;28;20029;-88
2023/03/24 03:35:04;;;;;;;4.40;3.00;;;10.60;99.90;;;;;;5043334;28;20033;-88
2023/03/24 03:37:52;;;;;;;4.93;3.47;;;10.60;99.90;;;;;;5042853;28;20025;-88
2023/03/24 03:40:33;;;;;;;4.70;3.22;;;10.60;99.90;;;;;;5043162;28;20027;-87
2023/03/24 03:42:59;;;;;;;5.43;3.13;;;10.60;99.90;;;;;;5042306;28;20155;-88
2023/03/24 03:45:24;;;;;;;4.15;2.83;;;10.60;99.90;;;;;;5043689;28;20025;-88
2023/03/24 03:47:50;;;;;;;4.97;2.90;;;10.60;99.90;;;;;;5042378;28;20123;-88
2023/03/24 03:50:16;;;;;;;5.75;3.45;;;10.60;99.90;;;;;;5042991;28;20127;-88
2023/03/24 03:52:43;;;;;;;5.60;2.92;;;10.60;99.90;;;;;;5024992;28;20099;-88
2023/03/24 03:55:10;;;;;;;5.05;3.30;;;10.60;99.90;;;;;;5042603;28;20607;-87
2023/03/24 03:57:36;;;;;;;7.32;3.42;;;10.60;99.90;;;;;;5042099;28;20115;-88
2023/03/24 04:00:10;;;;;;;8.60;2.90;;;10.70;99.90;;;;;;5041667;28;20040;-88
2023/03/24 04:02:52;;;;;;;5.18;2.90;;;10.60;99.90;;;;;;5042388;28;20025;-88
2023/03/24 04:05:37;;;;;;;5.97;3.28;;;10.60;99.90;;;;;;5043439;28;20048;-88
2023/03/24 04:08:40;;;;;;;4.97;2.97;;;10.60;99.90;;;;;;5042020;28;20111;-88
2023/03/24 04:11:23;;;;;;;7.72;3.10;;;10.60;99.90;;;;;;5041100;28;20060;-88
2023/03/24 04:14:10;;;;;;;4.35;2.95;;;10.60;99.90;;;;;;5025163;28;20029;-89
2023/03/24 04:17:04;;;;;;;4.53;3.25;;;10.50;99.90;;;;;;5042136;28;20052;-88
2023/03/24 04:19:59;;;;;;;4.47;3.17;;;10.50;99.90;;;;;;5040608;28;20393;-88
2023/03/24 04:22:39;;;;;;;4.57;3.00;;;10.50;99.90;;;;;;5026575;28;20017;-88
2023/03/24 04:25:33;;;;;;;5.20;3.20;;;10.40;99.90;;;;;;5038549;28;20021;-88
2023/03/24 04:28:04;;;;;;;5.47;3.58;;;10.50;99.90;;;;;;5008495;28;20571;-89
2023/03/24 04:30:33;;;;;;;5.53;3.15;;;10.50;99.90;;;;;;5040687;28;20450;-88
2023/03/24 04:33:02;;;;;;;5.65;3.13;;;10.50;99.90;;;;;;5038978;28;20040;-88
2023/03/24 04:35:43;;;;;;;7.75;3.40;;;10.40;99.90;;;;;;5042116;28;20094;-88
2023/03/24 04:38:15;;;;;;;6.03;3.57;;;10.40;99.90;;;;;;5040097;28;21328;-87
2023/03/24 04:40:43;;;;;;;6.55;3.53;;;10.50;99.90;;;;;;5041530;28;20096;-89
2023/03/24 04:43:15;;;;;;;4.60;3.83;;;10.40;99.90;;;;;;5040799;28;20059;-88
2023/03/24 04:45:48;;;;;;;9.83;4.50;;;10.40;99.90;;;;;;5039860;28;20024;-88
2023/03/24 04:48:16;;;;;;;6.50;4.20;;;10.30;99.90;;;;;;5032025;28;20056;-88
2023/03/24 04:50:51;;;;;;;6.83;3.87;;;10.30;99.90;;;;;;5039056;28;20067;-88
2023/03/24 04:53:19;;;;;;;6.90;3.83;;;10.30;99.90;;;;;;5040528;28;20033;-88
2023/03/24 04:56:22;;;;;;;8.57;4.17;;;10.40;99.90;;;;;;5041383;28;20124;-88
2023/03/24 04:58:48;;;;;;;7.37;4.50;;;10.40;99.90;;;;;;5039583;28;20028;-87
2023/03/24 05:01:15;;;;;;;12.77;4.80;;;10.30;99.90;;;;;;5040023;28;20487;-88
2023/03/24 05:03:44;;;;;;;9.27;4.43;;;10.40;99.90;;;;;;5038503;28;20025;-88
2023/03/24 05:06:11;;;;;;;6.93;3.90;;;10.30;99.90;;;;;;5040732;28;20080;-87
2023/03/24 05:08:39;;;;;;;7.27;4.07;;;10.30;99.90;;;;;;5040471;28;20025;-88
2023/03/24 05:11:05;;;;;;;5.37;4.00;;;10.30;99.90;;;;;;5040763;28;20032;-88
2023/03/24 05:13:31;;;;;;;5.57;4.20;;;10.30;99.90;;;;;;5022949;28;20033;-87
2023/03/24 05:15:57;;;;;;;6.47;4.10;;;10.30;99.90;;;;;;5041090;28;20527;-88
2023/03/24 05:18:23;;;;;;;7.17;4.63;;;10.30;99.90;;;;;;5039751;28;20399;-88
2023/03/24 05:20:49;;;;;;;6.50;4.27;;;10.30;99.90;;;;;;5040572;28;20514;-87
2023/03/24 05:23:15;;;;;;;7.25;4.25;;;10.30;99.90;;;;;;5041090;28;20033;-87
2023/03/24 05:25:40;;;;;;;7.13;4.90;;;10.30;99.90;;;;;;5040063;28;20032;-87
2023/03/24 05:28:06;;;;;;;9.63;4.80;;;10.40;99.90;;;;;;5039283;28;20062;-87
2023/03/24 05:30:32;;;;;;;6.73;4.40;;;10.30;99.90;;;;;;5040673;28;20056;-87
2023/03/24 05:32:58;;;;;;;9.43;5.10;;;10.30;99.90;;;;;;5038814;28;20033;-87
2023/03/24 05:35:23;;;;;;;11.30;4.70;;;10.30;99.90;;;;;;5017778;28;20411;-87
2023/03/24 05:37:49;;;;;;;8.60;4.90;;;10.30;99.90;;;;;;5039084;28;20099;-87
2023/03/24 05:40:15;;;;;;;8.30;5.10;;;10.30;99.90;;;;;;5039464;28;20767;-88
2023/03/24 05:42:41;;;;;;;7.33;4.67;;;10.30;99.90;;;;;;5038433;28;20029;-87
2023/03/24 05:45:07;;;;;;;7.23;5.00;;;10.30;99.90;;;;;;5036629;28;20036;-88
2023/03/24 05:47:33;;;;;;;13.82;4.93;;;10.30;99.90;;;;;;5024902;28;20699;-87
2023/03/24 05:49:59;;;;;;;7.23;4.83;;;10.30;99.90;;;;;;5035889;28;20065;-88
2023/03/24 05:52:24;;;;;;;13.35;5.40;;;10.30;99.90;;;;;;5038637;28;20059;-88
2023/03/24 05:54:51;;;;;;;6.97;4.90;;;10.40;99.90;;;;;;5038282;28;20037;-87
2023/03/24 05:57:17;;;;;;;7.70;5.32;;;10.40;99.90;;;;;;5037457;28;20025;-86
2023/03/24 05:59:42;;;;;;;9.63;5.22;;;10.40;99.90;;;;;;5037154;28;20029;-87
2023/03/24 06:02:08;;;;;;;9.10;5.67;;;10.40;99.90;;;;;;5037758;28;20044;-87
2023/03/24 06:04:36;;;;;;;7.73;5.60;;;10.40;99.90;;;;;;5037454;28;20029;-87
2023/03/24 06:07:02;;;;;;;9.55;5.80;;;10.50;99.90;;;;;;5038368;28;20391;-87
2023/03/24 06:09:31;;;;;;;7.60;5.03;;;10.40;99.90;;;;;;5037705;28;20033;-87
2023/03/24 06:11:58;;;;;;;7.78;4.90;;;10.50;99.90;;;;;;5038107;28;20255;-87
2023/03/24 06:14:24;;;;;;;10.00;5.57;;;10.40;99.90;;;;;;5038678;28;20113;-86
2023/03/24 06:16:50;;;;;;;9.02;5.32;;;10.50;99.90;;;;;;5037484;28;20424;-86
2023/03/24 06:19:17;;;;;;;7.05;4.80;;;10.50;99.90;;;;;;5037481;28;20108;-86
2023/03/24 06:21:49;;;;;;;9.37;5.40;;;10.50;99.90;;;;;;5020863;28;20088;-86
2023/03/24 06:24:15;;;;;;;8.38;5.40;;;10.50;99.90;;;;;;5036717;28;20095;-86
2023/03/24 06:26:43;;;;;;;7.88;5.55;;;10.50;99.90;;;;;;5038038;28;21350;-85
2023/03/24 06:29:10;;;;;;;8.70;5.00;;;10.50;99.90;;;;;;5038808;28;20037;-86
2023/03/24 06:31:36;;;;;;;7.47;5.65;;;10.60;99.90;;;;;;5039702;28;20138;-86
2023/03/24 06:34:03;;;;;;;11.45;5.55;;;10.60;99.90;;;;;;5039453;28;20075;-86
2023/03/24 06:36:33;;;;;;;11.95;5.45;;;10.60;99.90;;;;;;5038298;28;20067;-86
2023/03/24 06:39:01;;;;;;;9.80;5.05;;;10.60;99.90;;;;;;5023403;28;20078;-86
2023/03/24 06:41:26;;;;;;;9.45;4.80;;;10.60;99.90;;;;;;5041466;28;20111;-87
2023/03/24 06:43:52;;;;;;;8.10;4.60;;;10.60;99.90;;;;;;5040534;28;20479;-87
2023/03/24 06:46:17;;;;;;;6.77;4.60;;;10.70;99.90;;;;;;5040763;28;20032;-88
2023/03/24 06:48:43;;;;;;;6.17;4.10;;;10.70;99.90;;;;;;5040774;28;20131;-84
2023/03/24 06:51:08;;;;;;;7.28;4.80;;;10.80;99.90;;;;;;5036340;28;20179;-84
2023/03/24 06:53:34;;;;;;;7.00;4.60;;;10.80;99.90;;;;;;5038822;28;20076;-81
2023/03/24 06:55:59;;;;;;;12.30;4.97;;;10.90;99.90;;;;;;5041822;28;20032;-82
2023/03/24 06:58:25;;;;;;;8.00;4.87;;;10.90;99.90;;;;;;5042944;28;20058;-76
2023/03/24 07:00:52;;;;;;;10.02;4.90;;;10.90;99.90;;;;;;5042387;28;20436;-78
2023/03/24 07:03:18;;;;;;;6.70;4.67;;;10.90;99.90;;;;;;5042564;28;20032;-80
2023/03/24 07:05:44;;;;;;;7.20;4.57;;;10.90;99.90;;;;;;5033043;28;20106;-78
2023/03/24 07:08:10;;;;;;;7.47;4.40;;;11.00;99.90;;;;;;5022403;28;20040;-74
2023/03/24 07:10:41;;;;;;;7.13;4.43;;;10.90;99.90;;;;;;5023780;28;20052;-75
2023/03/24 07:13:07;;;;;;;9.47;5.30;;;11.00;99.90;;;;;;5022118;28;20108;-75
2023/03/24 07:15:33;;;;;;;8.73;5.80;;;11.00;99.90;;;;;;5023872;28;20027;-75
2023/03/24 07:18:01;;;;;;;10.73;5.10;;;11.00;99.90;;;;;;5022691;28;20049;-79
2023/03/24 07:20:26;;;;;;;7.33;5.17;;;11.00;99.90;;;;;;5019639;28;20021;-77
2023/03/24 07:22:56;;;;;;;8.27;5.32;;;11.00;99.90;;;;;;5015674;28;20507;-77
2023/03/24 07:25:23;;;;;;;7.60;5.13;;;11.00;99.90;;;;;;5016253;28;20033;-79
2023/03/24 07:27:53;;;;;;;7.93;5.43;;;11.00;99.90;;;;;;5015166;28;20074;-79
2023/03/24 07:30:19;;;;;;;9.60;5.78;;;11.00;99.90;;;;;;5016284;28;20492;-79
2023/03/24 07:32:45;;;;;;;9.18;5.22;;;11.10;99.90;;;;;;5014550;28;20041;-79
2023/03/24 07:35:12;;;;;;;7.47;5.28;;;11.10;99.90;;;;;;5021735;28;20435;-90
2023/03/24 07:37:38;;;;;;;9.48;5.90;;;11.20;99.90;;;;;;5022274;28;20736;-89
2023/03/24 07:40:10;;;;;;;7.18;5.60;;;11.20;99.90;;;;;;5022637;28;20144;-89
2023/03/24 07:42:37;;;;;;;11.02;5.63;;;11.30;99.90;;;;;;5021796;28;20532;-89
2023/03/24 07:45:09;;;;;;;9.30;5.80;;;11.30;99.90;;;;;;5022839;28;20984;-91
2023/03/24 07:47:35;;;;;;;8.25;5.75;;;11.40;99.90;;;;;;5022155;28;20017;-89
2023/03/24 07:50:03;;;;;;;8.53;5.70;;;11.40;99.90;;;;;;5014427;28;20033;-85
2023/03/24 07:52:29;;;;;;;7.75;4.88;;;11.40;99.90;;;;;;5017258;28;21437;-85
2023/03/24 07:54:55;;;;;;;6.70;4.95;;;11.50;99.90;;;;;;5017476;28;20488;-85
2023/03/24 07:57:21;;;;;;;6.72;5.15;;;11.50;99.90;;;;;;5020025;28;20044;-84
2023/03/24 07:59:47;;;;;;;8.00;5.43;;;11.60;99.90;;;;;;5020274;28;20029;-85
2023/03/24 08:02:17;;;;;;;7.72;5.05;;;11.60;99.90;;;;;;5019498;28;20025;-85
2023/03/24 08:04:43;;;;;;;9.38;5.20;;;11.70;99.90;;;;;;5022229;28;20021;-84
2023/03/24 08:07:11;;;;;;;7.88;4.70;;;11.70;99.90;;;;;;5020488;28;20136;-87
2023/03/24 08:09:36;;;;;;;7.53;4.63;;;11.70;99.90;;;;;;5036843;28;20027;-87
2023/03/24 08:12:02;;;;;;;14.15;5.70;;;11.80;99.90;;;;;;5037793;28;20029;-84
2023/03/24 08:14:28;;;;;;;9.10;4.60;;;11.80;99.90;;;;;;5037986;28;20670;-81
2023/03/24 08:16:53;;;;;;;7.20;4.70;;;11.80;99.90;;;;;;5039312;28;20486;-88
2023/03/24 08:19:19;;;;;;;7.65;4.30;;;11.90;99.90;;;;;;5039569;28;20028;-83
2023/03/24 08:21:45;;;;;;;5.88;3.80;;;11.90;99.90;;;;;;5038326;28;20464;-83
2023/03/24 08:24:10;;;;;;;6.18;4.15;;;12.00;99.90;;;;;;5037845;28;20035;-83
2023/03/24 08:26:36;;;;;;;7.82;4.00;;;12.00;99.90;;;;;;5039005;28;20031;-82
2023/03/24 08:29:02;;;;;;;8.55;4.00;;;12.00;99.90;;;;;;5039365;28;20051;-82
2023/03/24 08:31:34;;;;;;;5.65;3.80;;;12.10;99.90;;;;;;5037506;28;20396;-82
2023/03/24 08:34:00;;;;;;;7.32;4.20;;;12.10;99.90;;;;;;5039143;28;20033;-85
2023/03/24 08:36:26;;;;;;;6.43;3.40;;;12.10;99.90;;;;;;5039299;28;20040;-79
2023/03/24 08:38:54;;;;;;;5.28;4.07;;;12.10;99.90;;;;;;5039536;28;20132;-86
2023/03/24 08:41:20;;;;;;;6.68;3.80;;;12.20;99.90;;;;;;5037417;28;20036;-87
2023/03/24 08:43:46;;;;;;;5.45;3.63;;;12.20;99.90;;;;;;5041151;28;20032;-93
2023/03/24 08:46:14;;;;;;;5.22;3.80;;;12.20;99.90;;;;;;5039618;28;20033;-93
2023/03/24 08:48:39;;;;;;;7.85;4.03;;;12.30;99.90;;;;;;5041972;28;20037;-93
2023/03/24 08:51:14;;;;;;;6.78;3.70;;;12.30;99.90;;;;;;5040743;28;20078;-89
2023/03/24 08:53:40;;;;;;;5.93;4.20;;;12.30;99.90;;;;;;5040655;28;20052;-91
2023/03/24 08:56:08;;;;;;;5.63;4.00;;;12.30;99.90;;;;;;5040771;28;20032;-91
2023/03/24 08:58:34;;;;;;;6.30;3.78;;;12.30;99.90;;;;;;5039764;28;20025;-92
2023/03/24 09:01:00;;;;;;;5.40;3.90;;;12.30;99.90;;;;;;5041253;28;21343;-92
2023/03/24 09:03:26;;;;;;;5.13;4.03;;;12.30;99.90;;;;;;5040680;28;20033;-90
2023/03/24 09:05:58;;;;;;;6.45;3.90;;;12.40;99.90;;;;;;5039941;28;20480;-90
2023/03/24 09:08:24;;;;;;;5.20;3.50;;;12.40;99.90;;;;;;5039490;28;20607;-91
2023/03/24 09:10:50;;;;;;;7.65;3.88;;;12.50;99.90;;;;;;5040524;28;20033;-90
2023/03/24 09:13:17;;;;;;;5.82;3.65;;;12.60;99.90;;;;;;5039442;28;20041;-89
2023/03/24 09:15:50;;;;;;;6.43;4.38;;;12.80;99.90;;;;;;5040941;28;20032;-88
2023/03/24 09:18:16;;;;;;;7.15;3.70;;;12.80;99.90;;;;;;5039254;28;20051;-89
2023/03/24 09:20:43;;;;;;;5.38;3.58;;;12.90;99.90;;;;;;5040136;28;20079;-91
2023/03/24 09:23:08;;;;;;;5.00;2.95;;;12.90;99.90;;;;;;5039576;28;20080;-90
2023/03/24 09:25:34;;;;;;;5.72;3.50;;;13.00;99.90;;;;;;5039847;28;20124;-91
2023/03/24 09:28:01;;;;;;;5.28;2.42;;;13.10;99.90;;;;;;5039155;28;20040;-90
2023/03/24 09:30:26;;;;;;;4.25;2.95;;;13.10;99.90;;;;;;5039661;28;20033;-91
2023/03/24 09:32:52;;;;;;;5.82;2.85;;;13.10;99.90;;;;;;5038813;28;20112;-92
2023/03/24 09:35:18;;;;;;;3.83;2.60;;;13.20;99.90;;;;;;5040631;28;20037;-92
2023/03/24 09:37:43;;;;;;;5.07;2.90;;;13.30;99.90;;;;;;5040000;28;20435;-92
2023/03/24 09:40:27;;;;;;;3.63;2.85;;;13.30;99.90;;;;;;5041439;28;20140;-91
2023/03/24 09:43:13;;;;;;;5.05;3.00;;;13.10;99.90;;;;;;5039189;28;21446;-89
2023/03/24 09:45:47;;;;;;;;;;;13.10;99.90;;;;;;5040438;28;20033;-91
2023/03/24 09:48:29;;;;;;;3.72;2.53;;;13.10;99.90;;;;;;5039622;28;19913;-89
2023/03/24 09:50:59;;;;;;;5.35;3.40;;;13.10;99.90;;;;;;5023227;28;20029;-91
2023/03/24 09:54:21;;;;;;;4.45;3.22;;;13.00;99.90;;;;;;5038241;28;20037;-89
2023/03/24 09:56:48;;;;;;;4.55;3.17;;;12.90;99.90;;;;;;5020322;28;20748;-89
2023/03/24 09:59:20;;;;;;;4.97;3.60;;;12.90;99.90;;;;;;5037223;28;20029;-90
2023/03/24 10:01:47;;;;;;;5.22;3.50;;;12.80;99.90;;;;;;5038251;28;20021;-90
2023/03/24 10:04:17;;;;;;;4.75;3.50;;;12.80;99.90;;;;;;5037319;28;20059;-92
2023/03/24 10:06:42;;;;;;;4.45;3.40;;;12.80;99.90;;;;;;5020549;28;20117;-89
2023/03/24 10:09:11;;;;;;;5.53;3.83;;;12.80;99.90;;;;;;5036792;28;20033;-91
2023/03/24 10:11:49;;;;;;;7.45;3.78;;;12.80;99.90;;;;;;5038566;28;20018;-91
2023/03/24 10:15:03;;;;;;;7.10;3.80;;;12.80;99.90;;;;;;5021386;28;20025;-90
2023/03/24 10:17:49;;;;;;;7.70;3.35;;;12.90;99.90;;;;;;5007624;28;20048;-89
2023/03/24 10:20:24;;;;;;;6.18;3.92;;;12.90;99.90;;;;;;5037390;28;20025;-90
2023/03/24 10:23:18;;;;;;;5.05;3.80;;;12.90;99.90;;;;;;5038510;28;20116;-91
2023/03/24 10:26:08;;;;;;;6.45;4.00;;;12.90;99.90;;;;;;5037017;28;20091;-90
2023/03/24 10:28:48;;;;;;;5.07;3.58;;;13.00;99.90;;;;;;5038859;28;20894;-89
2023/03/24 10:31:16;;;;;;;6.20;3.72;;;12.90;99.90;;;;;;5041679;28;20483;-89
2023/03/24 10:33:43;;;;;;;5.07;3.65;;;12.80;99.90;;;;;;5042953;28;20044;-89
2023/03/24 10:36:17;;;;;;;4.80;3.38;;;12.90;99.90;;;;;;5043904;28;20049;-90
2023/03/24 10:38:43;;;;;;;4.88;3.45;;;12.90;99.90;;;;;;5042700;28;20060;-90
2023/03/24 10:41:21;;;;;;;4.40;3.22;;;13.00;99.90;;;;;;5044154;28;20120;-92
2023/03/24 10:43:50;;;;;;;3.83;3.40;;;13.00;99.90;;;;;;5026462;28;20437;-90
2023/03/24 10:46:23;;;;;;;4.57;2.90;;;13.00;99.90;;;;;;5041292;28;20025;-90
2023/03/24 10:48:51;;;;;;;6.65;3.38;;;13.00;99.90;;;;;;5044299;28;20832;-90
2023/03/24 10:51:20;;;;;;;3.35;2.40;;;13.10;99.90;;;;;;5043461;28;20028;-92
2023/03/24 10:53:47;;;;;;;4.93;2.50;;;13.10;99.90;;;;;;5044228;28;20610;-90
2023/03/24 10:56:35;;;;;;;4.03;2.30;;;13.20;99.90;;;;;;5045417;28;20060;-92
2023/03/24 10:59:01;;;;;;;2.75;1.90;;;13.30;99.90;;;;;;5045562;28;20030;-91
2023/03/24 11:01:31;;;;;;;3.65;2.10;;;13.40;99.90;;;;;;5045853;28;20021;-91
2023/03/24 11:04:04;;;;;;;2.70;1.85;;;13.50;99.90;;;;;;5045303;28;20069;-91
2023/03/24 11:06:30;;;;;;;3.72;1.77;;;13.60;99.90;;;;;;5045198;28;20057;-91
2023/03/24 11:09:18;;;;;;;4.07;1.90;;;13.60;99.90;;;;;;5044151;28;20040;-91
2023/03/24 11:11:44;;;;;;;4.18;1.83;;;13.60;99.90;;;;;;5046230;28;20057;-91
2023/03/24 11:14:24;;;;;;;5.20;2.08;;;13.60;99.90;;;;;;5041062;28;20117;-89
2023/03/24 11:16:50;;;;;;;2.80;2.10;;;13.50;99.90;;;;;;5042355;28;20021;-92
2023/03/24 11:19:25;;;;;;;2.72;1.70;;;13.40;99.90;;;;;;5042597;28;20037;-90
2023/03/24 11:21:56;;;;;;;;;;;13.30;99.90;;;;;;5026258;28;20033;-90
2023/03/24 11:24:22;;;;;;;4.75;2.30;;;13.30;99.90;;;;;;5042157;28;20070;-91
2023/03/24 11:26:55;;;;;;;3.17;2.03;;;13.30;99.90;;;;;;5041280;28;20062;-92
2023/03/24 11:29:24;;;;;;;3.30;2.10;;;13.40;99.90;;;;;;5042342;28;20021;-92
2023/03/24 11:31:58;;;;;;;4.75;1.90;;;13.40;99.90;;;;;;5040984;28;20032;-92
2023/03/24 11:34:37;;;;;;;3.25;1.55;;;13.50;99.90;;;;;;5041321;28;20413;-91
2023/03/24 11:37:07;;;;;;;2.88;1.77;;;13.60;99.90;;;;;;5044225;28;20554;-90
2023/03/24 11:39:33;;;;;;;3.45;1.88;;;13.80;99.90;;;;;;5042349;28;20045;-91
2023/03/24 11:42:10;;;;;;;2.40;1.88;;;14.10;99.90;;;;;;5042179;28;20032;-89
2023/03/24 11:44:48;;;;;;;3.80;2.20;;;14.30;99.90;;;;;;5042655;28;20013;-90
2023/03/24 11:47:35;;;;;;;3.28;2.10;;;14.50;99.90;;;;;;5042131;28;20032;-89
2023/03/24 11:50:17;;;;;;;4.50;2.15;;;14.70;99.90;;;;;;5042480;28;20029;-89
2023/03/24 11:53:14;;;;;;;2.65;1.65;;;14.80;99.90;;;;;;5042607;28;20952;-91
2023/03/24 11:56:02;;;;;;;2.50;1.92;;;15.00;99.90;;;;;;5044763;28;20103;-90
2023/03/24 11:58:47;;;;;;;3.08;1.90;;;15.20;99.90;;;;;;5042598;28;20032;-89
2023/03/24 12:01:19;;;;;;;2.72;1.83;;;15.30;99.90;;;;;;5042499;28;20021;-88
2023/03/24 12:04:06;;;;;;;2.53;1.60;;;15.50;99.90;;;;;;5042911;28;20040;-90
2023/03/24 12:06:48;;;;;;;2.03;1.58;;;15.70;99.90;;;;;;5042960;28;20045;-89
2023/03/24 12:09:52;;;;;;;2.80;1.60;;;15.80;99.90;;;;;;5043946;28;20036;-91
2023/03/24 12:12:29;;;;;;;2.90;1.70;;;16.10;99.90;;;;;;5006333;28;20033;-93
2023/03/24 12:14:58;;;;;;;1.98;1.55;;;16.30;99.90;;;;;;5044171;28;20029;-90
2023/03/24 12:17:27;;;;;;;2.50;1.55;;;16.30;99.90;;;;;;5044209;28;20598;-90
2023/03/24 12:20:38;;;;;;;2.25;1.40;;;16.40;99.90;;;;;;5043744;28;20026;-91
2023/03/24 12:23:10;;;;;;;2.60;1.80;;;16.50;99.90;;;;;;5040582;28;20030;-91
2023/03/24 12:25:47;;;;;;;2.50;1.48;;;16.40;99.90;;;;;;5043575;28;20159;-92
2023/03/24 12:28:35;;;;;;;2.63;1.90;;;16.30;99.90;;;;;;5031246;28;20108;-92
2023/03/24 12:31:48;;;;;;;1.98;1.40;;;16.30;99.90;;;;;;5041167;28;20561;-89
2023/03/24 12:34:38;;;;;;;2.38;1.20;;;16.20;99.90;;;;;;5042425;28;20376;-89
2023/03/24 12:37:25;;;;;;;2.75;1.67;;;16.10;99.90;;;;;;5045297;28;20071;-91
2023/03/24 12:40:00;;;;;;;2.05;1.33;;;16.10;99.90;;;;;;5032906;28;20031;-92
2023/03/24 12:42:38;;;;;;;2.60;1.40;;;16.00;99.90;;;;;;5044375;28;20028;-91
2023/03/24 12:45:21;;;;;;;1.45;1.30;;;16.00;99.90;;;;;;5043582;28;20036;-92
2023/03/24 12:48:10;;;;;;;2.15;1.30;;;15.90;99.90;;;;;;5043041;28;20121;-93
2023/03/24 12:51:05;;;;;;;4.78;1.50;;;15.90;99.90;;;;;;5044894;28;20081;-92
2023/03/24 12:53:48;;;;;;;2.63;1.47;;;15.80;99.90;;;;;;5037744;28;20041;-90
2023/03/24 12:56:23;;;;;;;4.05;1.77;;;15.50;99.90;;;;;;5044175;28;20106;-90
2023/03/24 12:59:01;;;;;;;2.50;1.67;;;15.30;99.90;;;;;;5041814;28;20040;-88
2023/03/24 13:01:51;;;;;;;4.38;1.20;;;15.00;99.90;;;;;;5042683;28;20103;-90
2023/03/24 13:04:29;;;;;;;2.33;1.60;;;14.70;99.90;;;;;;5040808;28;20033;-90
2023/03/24 13:07:02;;;;;;;2.08;1.48;;;14.50;99.90;;;;;;5042223;28;20045;-90
2023/03/24 13:09:35;;;;;;;2.42;1.40;;;14.20;99.90;;;;;;5041475;28;20037;-90
2023/03/24 13:12:11;;;;;;;2.63;1.30;;;13.90;99.90;;;;;;5042421;28;20025;-91
2023/03/24 13:15:04;;;;;;;1.77;1.30;;;13.70;99.90;;;;;;5042368;28;20107;-89
2023/03/24 13:17:56;;;;;;;1.73;1.30;;;13.60;99.90;;;;;;5042464;28;20028;-90